createdAt,value
2018-12-16T00:02:07.151Z,17.37
2018-12-16T00:04:35.288Z,13.33
2018-12-16T00:07:03.442Z,16.70
2018-12-16T00:09:31.585Z,14.77
2018-12-16T00:11:59.822Z,16.03
2018-12-16T00:14:27.993Z,16.40
2018-12-16T00:16:56.168Z,15.43
2018-12-16T00:19:24.342Z,13.30
2018-12-16T00:21:52.513Z,15.30
2018-12-16T00:24:20.664Z,13.13
2018-12-16T00:27:00.197Z,16.70
2018-12-16T00:29:28.370Z,16.70
2018-12-16T00:31:56.520Z,15.43
2018-12-16T00:34:24.678Z,14.40
2018-12-16T00:36:52.924Z,18.33
2018-12-16T00:39:21.080Z,16.37
2018-12-16T00:41:49.392Z,16.30
2018-12-16T00:44:17.529Z,14.57
2018-12-16T00:46:45.779Z,16.37
2018-12-16T00:49:14.020Z,15.37
2018-12-16T00:51:42.402Z,16.30
2018-12-16T00:54:10.561Z,17.60
2018-12-16T00:56:38.708Z,15.93
2018-12-16T00:59:06.885Z,17.40
2018-12-16T01:01:35.101Z,15.70
2018-12-16T01:04:03.337Z,12.90
2018-12-16T01:06:31.572Z,16.53
2018-12-16T01:08:59.733Z,16.73
2018-12-16T01:11:27.867Z,15.67
2018-12-16T01:13:56.114Z,17.97
2018-12-16T01:16:24.244Z,17.17
2018-12-16T01:18:52.405Z,17.43
2018-12-16T01:21:20.554Z,17.27
2018-12-16T01:23:53.750Z,16.63
2018-12-16T01:26:21.888Z,16.53
2018-12-16T01:28:50.050Z,20.87
2018-12-16T01:31:18.192Z,20.07
2018-12-16T01:33:46.344Z,17.50
2018-12-16T01:36:14.499Z,17.83
2018-12-16T01:38:43.111Z,16.50
2018-12-16T01:41:11.331Z,17.23
2018-12-16T01:43:39.471Z,17.67
2018-12-16T01:46:07.622Z,22.03
2018-12-16T01:48:35.882Z,19.70
2018-12-16T01:51:04.034Z,18.57
2018-12-16T01:53:32.180Z,17.60
2018-12-16T01:56:00.311Z,15.50
2018-12-16T01:58:28.475Z,19.60
2018-12-16T02:00:56.782Z,17.33
2018-12-16T02:03:25.016Z,17.90
2018-12-16T02:05:53.155Z,15.33
2018-12-16T02:08:21.390Z,19.13
2018-12-16T02:10:49.545Z,18.73
2018-12-16T02:13:17.688Z,17.57
2018-12-16T02:15:45.916Z,16.30
2018-12-16T02:18:14.069Z,16.07
2018-12-16T02:20:42.232Z,11.87
2018-12-16T02:23:10.378Z,17.90
2018-12-16T02:25:38.604Z,16.17
2018-12-16T02:28:06.763Z,16.70
2018-12-16T02:30:34.905Z,15.90
2018-12-16T02:33:03.117Z,15.63
2018-12-16T02:35:31.345Z,14.53
2018-12-16T02:37:59.578Z,18.20
2018-12-16T02:40:27.736Z,18.40
2018-12-16T02:42:55.936Z,15.67
2018-12-16T02:45:24.097Z,18.77
2018-12-16T02:47:52.331Z,17.53
2018-12-16T02:50:20.574Z,19.37
2018-12-16T02:52:48.719Z,19.07
2018-12-16T02:55:16.972Z,17.17
2018-12-16T02:57:45.199Z,17.93
2018-12-16T03:00:13.574Z,15.57
2018-12-16T03:02:41.716Z,17.97
2018-12-16T03:05:09.875Z,14.73
2018-12-16T03:07:38.009Z,15.60
2018-12-16T03:10:06.358Z,19.10
2018-12-16T03:12:34.576Z,18.53
2018-12-16T03:15:02.885Z,16.93
2018-12-16T03:17:31.176Z,19.80
2018-12-16T03:19:59.337Z,17.83
2018-12-16T03:22:27.473Z,17.77
2018-12-16T03:24:55.628Z,20.23
2018-12-16T03:27:23.775Z,16.67
2018-12-16T03:29:52.030Z,15.53
2018-12-16T03:32:20.228Z,17.33
2018-12-16T03:34:48.463Z,18.73
2018-12-16T03:37:16.682Z,17.60
2018-12-16T03:39:44.926Z,21.40
2018-12-16T03:42:13.143Z,20.23
2018-12-16T03:44:41.288Z,15.60
2018-12-16T03:47:09.439Z,16.97
2018-12-16T03:49:37.676Z,16.57
2018-12-16T03:52:07.121Z,19.27
2018-12-16T03:54:35.603Z,19.27
2018-12-16T03:57:03.850Z,19.03
2018-12-16T03:59:32.060Z,15.60
2018-12-16T04:02:00.297Z,17.83
2018-12-16T04:04:28.636Z,19.67
2018-12-16T04:06:56.764Z,18.63
2018-12-16T04:09:38.431Z,19.90
2018-12-16T04:12:06.633Z,20.30
2018-12-16T04:14:34.771Z,25.50
2018-12-16T04:17:03.269Z,19.60
2018-12-16T04:19:32.071Z,19.67
2018-12-16T04:22:00.207Z,24.07
2018-12-16T04:24:28.335Z,19.03
2018-12-16T04:26:56.517Z,21.30
2018-12-16T04:29:24.822Z,22.07
2018-12-16T04:31:53.030Z,23.43
2018-12-16T04:34:21.329Z,21.83
2018-12-16T04:36:49.486Z,24.33
2018-12-16T04:39:18.038Z,23.10
2018-12-16T04:42:06.494Z,20.67
2018-12-16T04:44:34.653Z,20.53
2018-12-16T04:47:03.337Z,24.00
2018-12-16T04:49:31.482Z,23.03
2018-12-16T04:51:59.633Z,25.90
2018-12-16T04:54:27.910Z,24.93
2018-12-16T04:56:56.046Z,26.80
2018-12-16T04:59:24.215Z,24.00
2018-12-16T05:01:52.429Z,22.53
2018-12-16T05:04:20.754Z,21.83
2018-12-16T05:06:49.189Z,21.70
2018-12-16T05:09:17.411Z,18.73
2018-12-16T05:11:45.685Z,23.90
2018-12-16T05:14:14.029Z,21.80
2018-12-16T05:16:42.254Z,26.53
2018-12-16T05:19:12.495Z,23.20
2018-12-16T05:21:40.794Z,24.27
2018-12-16T05:24:09.126Z,25.43
2018-12-16T05:26:37.302Z,23.00
2018-12-16T05:29:05.603Z,23.37
2018-12-16T05:31:33.754Z,23.73
2018-12-16T05:34:01.938Z,22.10
2018-12-16T05:36:30.136Z,23.00
2018-12-16T05:38:58.318Z,27.40
2018-12-16T05:41:26.461Z,25.23
2018-12-16T05:43:54.605Z,26.17
2018-12-16T05:46:22.749Z,26.17
2018-12-16T05:48:51.015Z,25.13
2018-12-16T05:51:19.160Z,26.60
2018-12-16T05:53:48.802Z,28.67
2018-12-16T05:56:17.142Z,19.77
2018-12-16T05:58:45.468Z,25.50
2018-12-16T06:01:13.697Z,25.80
2018-12-16T06:03:41.887Z,25.23
2018-12-16T06:06:10.113Z,28.20
2018-12-16T06:08:38.278Z,23.47
2018-12-16T06:11:06.442Z,28.03
2018-12-16T06:13:34.594Z,28.40
2018-12-16T06:16:03.844Z,30.00
2018-12-16T06:18:32.047Z,23.07
2018-12-16T06:21:00.260Z,24.17
2018-12-16T06:23:28.457Z,23.90
2018-12-16T06:25:56.680Z,29.77
2018-12-16T06:28:24.880Z,26.10
2018-12-16T06:30:53.345Z,23.73
2018-12-16T06:33:21.531Z,26.67
2018-12-16T06:35:49.761Z,24.77
2018-12-16T06:38:17.932Z,27.57
2018-12-16T06:40:46.179Z,26.73
2018-12-16T06:43:14.397Z,28.97
2018-12-16T06:45:42.596Z,28.87
2018-12-16T06:48:10.816Z,31.13
2018-12-16T06:50:39.063Z,24.03
2018-12-16T06:53:07.202Z,30.03
2018-12-16T06:55:35.380Z,25.07
2018-12-16T06:58:03.602Z,26.87
2018-12-16T07:00:31.830Z,26.87
2018-12-16T07:02:59.983Z,25.77
2018-12-16T07:05:28.129Z,27.27
2018-12-16T07:07:56.365Z,27.23
2018-12-16T07:10:24.506Z,26.07
2018-12-16T07:12:52.778Z,28.97
2018-12-16T07:15:21.009Z,29.17
2018-12-16T07:17:49.132Z,26.03
2018-12-16T07:20:17.286Z,29.20
2018-12-16T07:22:47.089Z,27.93
2018-12-16T07:25:15.545Z,29.87
2018-12-16T07:27:43.845Z,30.77
2018-12-16T07:30:12.195Z,27.03
2018-12-16T07:32:40.435Z,27.57
2018-12-16T07:35:08.721Z,28.77
2018-12-16T07:37:37.032Z,30.60
2018-12-16T07:40:05.785Z,23.60
2018-12-16T07:42:33.935Z,33.40
2018-12-16T07:45:02.474Z,25.20
2018-12-16T07:47:30.774Z,27.33
2018-12-16T07:49:58.981Z,23.53
2018-12-16T07:52:27.206Z,27.27
2018-12-16T07:54:55.351Z,25.50
2018-12-16T07:57:23.587Z,23.27
2018-12-16T07:59:51.728Z,29.43
2018-12-16T08:02:19.936Z,25.10
2018-12-16T08:04:48.085Z,26.43
2018-12-16T08:07:16.249Z,27.30
2018-12-16T08:09:44.432Z,28.27
2018-12-16T08:12:12.676Z,26.77
2018-12-16T08:14:41.038Z,29.93
2018-12-16T08:17:09.317Z,26.67
2018-12-16T08:19:37.450Z,26.40
2018-12-16T08:22:05.744Z,25.30
2018-12-16T08:24:34.013Z,26.47
2018-12-16T08:27:02.567Z,24.47
2018-12-16T08:29:30.885Z,24.93
2018-12-16T08:31:59.147Z,26.43
2018-12-16T08:34:27.285Z,28.50
2018-12-16T08:36:55.454Z,25.17
2018-12-16T08:39:23.583Z,25.97
2018-12-16T08:41:51.933Z,27.23
2018-12-16T08:44:20.183Z,25.13
2018-12-16T08:46:48.400Z,23.83
2018-12-16T08:49:16.555Z,26.60
2018-12-16T08:51:44.740Z,27.77
2018-12-16T08:54:13.088Z,29.00
2018-12-16T08:56:41.277Z,27.57
2018-12-16T08:59:09.457Z,30.13
2018-12-16T09:01:37.655Z,32.97
2018-12-16T09:04:05.933Z,31.30
2018-12-16T09:06:35.879Z,28.87
2018-12-16T09:09:05.895Z,28.83
2018-12-16T09:11:34.127Z,31.63
2018-12-16T09:14:03.394Z,39.30
2018-12-16T09:16:31.519Z,25.57
2018-12-16T09:18:59.668Z,28.37
2018-12-16T09:21:27.832Z,28.53
2018-12-16T09:23:55.984Z,26.63
2018-12-16T09:26:24.147Z,28.70
2018-12-16T09:28:52.301Z,28.77
2018-12-16T09:31:20.443Z,29.87
2018-12-16T09:33:48.608Z,27.17
2018-12-16T09:36:16.820Z,26.23
2018-12-16T09:38:44.989Z,30.07
2018-12-16T09:41:13.139Z,29.43
2018-12-16T09:43:41.288Z,35.50
2018-12-16T09:46:09.427Z,32.53
2018-12-16T09:48:43.935Z,29.63
2018-12-16T09:51:12.162Z,41.23
2018-12-16T09:53:40.403Z,33.93
2018-12-16T09:56:08.545Z,26.87
2018-12-16T09:58:36.695Z,33.77
2018-12-16T10:01:04.917Z,40.00
2018-12-16T10:03:33.150Z,30.90
2018-12-16T10:06:01.305Z,29.37
2018-12-16T10:08:29.461Z,31.13
2018-12-16T10:10:57.628Z,33.67
2018-12-16T10:13:25.891Z,35.70
2018-12-16T10:15:54.206Z,33.70
2018-12-16T10:18:22.350Z,29.67
2018-12-16T10:20:50.804Z,32.87
2018-12-16T10:23:19.050Z,36.10
2018-12-16T10:25:47.200Z,32.03
2018-12-16T10:28:15.341Z,33.30
2018-12-16T10:30:44.582Z,37.67
2018-12-16T10:33:12.834Z,36.00
2018-12-16T10:35:41.080Z,33.23
2018-12-16T10:38:09.298Z,34.03
2018-12-16T10:40:37.442Z,30.20
2018-12-16T10:43:05.595Z,36.07
2018-12-16T10:45:33.761Z,31.43
2018-12-16T10:48:01.997Z,32.90
2018-12-16T10:50:30.145Z,30.27
2018-12-16T10:52:58.457Z,33.47
2018-12-16T10:55:26.772Z,31.13
2018-12-16T10:57:54.922Z,32.53
2018-12-16T11:00:28.509Z,32.10
2018-12-16T11:02:56.684Z,34.20
2018-12-16T11:05:25.299Z,31.83
2018-12-16T11:07:53.576Z,32.70
2018-12-16T11:10:21.910Z,40.57
2018-12-16T11:12:50.248Z,34.83
2018-12-16T11:15:18.454Z,37.03
2018-12-16T11:17:47.096Z,35.93
2018-12-16T11:20:15.475Z,35.40
2018-12-16T11:22:43.648Z,38.37
2018-12-16T11:25:14.538Z,36.23
2018-12-16T11:27:42.693Z,34.23
2018-12-16T11:30:11.645Z,39.60
2018-12-16T11:32:39.884Z,47.50
2018-12-16T11:35:08.449Z,53.97
2018-12-16T11:37:36.586Z,42.93
2018-12-16T11:40:05.824Z,34.23
2018-12-16T11:42:34.046Z,34.67
2018-12-16T11:45:02.526Z,34.63
2018-12-16T11:47:30.776Z,34.37
2018-12-16T11:49:59.007Z,32.57
2018-12-16T11:52:27.548Z,36.97
2018-12-16T11:54:55.681Z,37.73
2018-12-16T11:57:23.906Z,30.47
2018-12-16T11:59:52.162Z,32.80
2018-12-16T12:02:20.310Z,32.07
2018-12-16T12:04:48.568Z,32.73
2018-12-16T12:07:16.788Z,33.13
2018-12-16T12:09:44.932Z,35.03
2018-12-16T12:12:13.084Z,34.27
2018-12-16T12:14:41.297Z,37.83
2018-12-16T12:17:09.448Z,36.00
2018-12-16T12:19:39.732Z,33.63
2018-12-16T12:22:08.516Z,38.57
2018-12-16T12:24:36.673Z,36.30
2018-12-16T12:27:04.973Z,29.97
2018-12-16T12:29:33.122Z,33.87
2018-12-16T12:32:01.917Z,30.67
2018-12-16T12:34:30.066Z,31.10
2018-12-16T12:36:58.266Z,31.13
2018-12-16T12:39:26.985Z,29.87
2018-12-16T12:41:55.186Z,32.80
2018-12-16T12:44:23.384Z,27.50
2018-12-16T12:46:51.618Z,29.47
2018-12-16T12:49:19.817Z,33.10
2018-12-16T12:51:48.039Z,30.87
2018-12-16T12:54:16.507Z,41.80
2018-12-16T12:56:44.720Z,34.40
2018-12-16T12:59:12.909Z,34.53
2018-12-16T13:01:41.091Z,32.20
2018-12-16T13:04:09.349Z,37.60
2018-12-16T13:06:37.491Z,31.47
2018-12-16T13:09:07.734Z,32.20
2018-12-16T13:11:35.931Z,32.60
2018-12-16T13:14:04.306Z,30.03
2018-12-16T13:16:32.606Z,35.93
2018-12-16T13:19:00.789Z,34.90
2018-12-16T13:21:28.961Z,35.37
2018-12-16T13:23:57.129Z,34.37
2018-12-16T13:26:25.379Z,34.10
2018-12-16T13:28:53.666Z,40.93
2018-12-16T13:31:21.896Z,43.50
2018-12-16T13:33:50.064Z,40.53
2018-12-16T13:36:18.413Z,34.93
2018-12-16T13:38:46.567Z,37.93
2018-12-16T13:41:14.787Z,33.57
2018-12-16T13:43:42.989Z,37.90
2018-12-16T13:46:11.238Z,36.03
2018-12-16T13:48:39.745Z,42.20
2018-12-16T13:51:07.914Z,37.83
2018-12-16T13:53:36.098Z,40.27
2018-12-16T13:56:04.333Z,33.53
2018-12-16T13:58:32.485Z,39.70
2018-12-16T14:01:00.644Z,36.63
2018-12-16T14:03:28.806Z,54.63
2018-12-16T14:05:57.044Z,43.87
2018-12-16T14:08:25.205Z,43.40
2018-12-16T14:10:53.460Z,36.17
2018-12-16T14:13:21.607Z,38.23
2018-12-16T14:15:52.522Z,46.90
2018-12-16T14:18:19.929Z,37.70
2018-12-16T14:20:48.144Z,39.00
2018-12-16T14:23:16.343Z,43.07
2018-12-16T14:25:47.926Z,40.80
2018-12-16T14:28:14.675Z,43.10
2018-12-16T14:30:42.946Z,46.70
2018-12-16T14:33:11.113Z,48.20
2018-12-16T14:35:39.413Z,42.80
2018-12-16T14:38:07.856Z,41.77
2018-12-16T14:40:36.022Z,52.80
2018-12-16T14:43:04.268Z,44.13
2018-12-16T14:45:32.453Z,51.50
2018-12-16T14:48:00.610Z,53.83
2018-12-16T14:50:28.790Z,53.97
2018-12-16T14:52:57.057Z,52.10
2018-12-16T14:55:25.293Z,48.83
2018-12-16T14:57:53.461Z,60.13
2018-12-16T15:00:21.719Z,43.50
2018-12-16T15:02:49.873Z,46.90
2018-12-16T15:05:18.039Z,50.47
2018-12-16T15:07:46.206Z,43.97
2018-12-16T15:10:14.382Z,37.97
2018-12-16T15:12:42.569Z,41.27
2018-12-16T15:15:10.926Z,46.20
2018-12-16T15:17:42.818Z,43.53
2018-12-16T15:20:09.418Z,49.67
2018-12-16T15:22:37.592Z,45.03
2018-12-16T15:25:06.185Z,46.23
2018-12-16T15:27:34.455Z,38.70
2018-12-16T15:30:03.126Z,38.70
2018-12-16T15:32:31.305Z,35.67
2018-12-16T15:34:59.476Z,43.03
2018-12-16T15:37:27.654Z,44.50
2018-12-16T15:39:55.837Z,43.50
2018-12-16T15:42:24.038Z,38.80
2018-12-16T15:44:52.212Z,43.87
2018-12-16T15:47:20.397Z,45.63
2018-12-16T15:49:48.556Z,36.23
2018-12-16T15:52:16.728Z,39.57
2018-12-16T15:54:44.916Z,40.67
2018-12-16T15:57:13.106Z,35.03
2018-12-16T15:59:41.365Z,51.57
2018-12-16T16:02:09.547Z,52.67
2018-12-16T16:04:37.697Z,49.97
2018-12-16T16:07:05.901Z,46.17
2018-12-16T16:09:34.077Z,47.67
2018-12-16T16:12:02.443Z,42.93
2018-12-16T16:14:30.625Z,40.97
2018-12-16T16:16:58.897Z,68.33
2018-12-16T16:19:27.077Z,45.20
2018-12-16T16:21:55.240Z,53.57
2018-12-16T16:24:23.490Z,57.50
2018-12-16T16:26:51.678Z,62.37
2018-12-16T16:29:19.912Z,48.87
2018-12-16T16:31:48.138Z,47.90
2018-12-16T16:34:16.317Z,49.70
2018-12-16T16:36:44.602Z,47.87
2018-12-16T16:39:12.814Z,41.67
2018-12-16T16:41:41.088Z,47.77
2018-12-16T16:44:09.279Z,50.00
2018-12-16T16:46:37.473Z,49.27
2018-12-16T16:49:06.526Z,43.63
2018-12-16T16:51:34.899Z,40.33
2018-12-16T16:54:03.179Z,45.57
2018-12-16T16:56:31.364Z,38.93
2018-12-16T16:58:59.556Z,37.53
2018-12-16T17:01:27.752Z,43.93
2018-12-16T17:03:55.983Z,34.03
2018-12-16T17:06:24.181Z,33.87
2018-12-16T17:08:52.371Z,45.63
2018-12-16T17:11:21.124Z,46.00
2018-12-16T17:13:49.778Z,43.40
2018-12-16T17:16:18.072Z,34.87
2018-12-16T17:18:46.443Z,38.93
2018-12-16T17:21:14.621Z,36.67
2018-12-16T17:23:42.831Z,40.83
2018-12-16T17:26:11.013Z,56.00
2018-12-16T17:28:39.299Z,54.40
2018-12-16T17:31:07.565Z,53.93
2018-12-16T17:33:35.728Z,50.30
2018-12-16T17:36:04.221Z,59.60
2018-12-16T17:41:07.013Z,58.90
2018-12-16T17:43:35.268Z,55.83
2018-12-16T17:46:03.421Z,52.63
2018-12-16T17:48:31.575Z,67.83
2018-12-16T17:50:59.759Z,56.27
2018-12-16T17:53:27.947Z,49.93
2018-12-16T17:55:56.496Z,50.43
2018-12-16T17:58:25.508Z,44.67
2018-12-16T18:00:53.670Z,53.80
2018-12-16T18:03:22.136Z,55.97
2018-12-16T18:05:50.290Z,51.10
2018-12-16T18:08:18.546Z,49.53
2018-12-16T18:10:46.717Z,49.23
2018-12-16T18:13:14.887Z,57.40
2018-12-16T18:15:43.188Z,55.13
2018-12-16T18:18:11.375Z,52.63
2018-12-16T18:20:39.646Z,52.07
2018-12-16T18:23:07.818Z,56.47
2018-12-16T18:25:36.010Z,71.40
2018-12-16T18:28:04.169Z,49.57
2018-12-16T18:30:32.381Z,43.83
2018-12-16T18:33:00.990Z,45.53
2018-12-16T18:35:29.124Z,50.27
2018-12-16T18:37:57.723Z,44.67
2018-12-16T18:40:25.970Z,47.67
2018-12-16T18:42:54.162Z,47.80
2018-12-16T18:45:22.410Z,47.80
2018-12-16T18:47:50.656Z,60.83
2018-12-16T18:50:18.973Z,51.00
2018-12-16T18:52:47.130Z,50.53
2018-12-16T18:55:15.278Z,48.23
2018-12-16T18:57:43.424Z,45.10
2018-12-16T19:00:12.200Z,52.27
2018-12-16T19:02:40.447Z,59.37
2018-12-16T19:05:08.584Z,51.40
2018-12-16T19:07:36.906Z,50.07
2018-12-16T19:10:06.036Z,44.70
2018-12-16T19:12:34.342Z,48.50
2018-12-16T19:15:02.684Z,53.80
2018-12-16T19:17:31.012Z,44.30
2018-12-16T19:19:59.184Z,42.33
2018-12-16T19:22:27.374Z,41.13
2018-12-16T19:24:55.512Z,38.33
2018-12-16T19:27:23.670Z,40.33
2018-12-16T19:29:51.819Z,40.80
2018-12-16T19:32:19.982Z,42.10
2018-12-16T19:34:48.130Z,37.17
2018-12-16T19:37:16.373Z,38.97
2018-12-16T19:39:44.561Z,39.00
2018-12-16T19:42:12.746Z,43.10
2018-12-16T19:44:40.919Z,38.00
2018-12-16T19:47:09.157Z,41.07
2018-12-16T19:49:37.398Z,40.03
2018-12-16T19:52:05.644Z,40.07
2018-12-16T19:54:34.243Z,43.40
2018-12-16T19:57:05.245Z,44.80
2018-12-16T19:59:32.676Z,45.77
2018-12-16T20:02:01.033Z,51.10
2018-12-16T20:04:34.547Z,55.57
2018-12-16T20:07:02.810Z,53.63
2018-12-16T20:09:30.993Z,65.60
2018-12-16T20:11:59.151Z,48.67
2018-12-16T20:14:27.323Z,50.20
2018-12-16T20:16:55.468Z,53.03
2018-12-16T20:19:23.658Z,56.53
2018-12-16T20:21:51.860Z,49.37
2018-12-16T20:24:20.030Z,51.30
2018-12-16T20:26:48.179Z,51.13
2018-12-16T20:29:16.341Z,48.17
2018-12-16T20:31:44.580Z,42.83
2018-12-16T20:34:12.898Z,41.73
2018-12-16T20:36:41.162Z,42.80
2018-12-16T20:39:09.400Z,34.30
2018-12-16T20:41:37.568Z,43.50
2018-12-16T20:44:05.736Z,38.17
2018-12-16T20:46:33.904Z,45.67
2018-12-16T20:49:02.057Z,35.60
2018-12-16T20:51:30.322Z,44.40
2018-12-16T20:53:58.469Z,49.30
2018-12-16T20:56:26.626Z,37.90
2018-12-16T20:58:54.864Z,36.50
2018-12-16T21:01:23.022Z,32.50
2018-12-16T21:03:51.214Z,38.20
2018-12-16T21:06:19.366Z,34.70
2018-12-16T21:08:47.520Z,34.90
2018-12-16T21:11:21.116Z,38.07
2018-12-16T21:13:54.510Z,33.33
2018-12-16T21:16:28.041Z,31.57
2018-12-16T21:18:56.333Z,34.43
2018-12-16T21:21:24.505Z,32.10
2018-12-16T21:23:52.814Z,38.53
2018-12-16T21:26:20.981Z,41.17
2018-12-16T21:28:49.169Z,40.90
2018-12-16T21:31:17.480Z,39.30
2018-12-16T21:33:45.636Z,41.43
2018-12-16T21:36:13.803Z,45.10
2018-12-16T21:38:41.969Z,40.33
2018-12-16T21:41:10.118Z,32.70
2018-12-16T21:43:38.276Z,42.70
2018-12-16T21:46:06.493Z,35.17
2018-12-16T21:48:34.719Z,43.70
2018-12-16T21:51:02.980Z,30.77
2018-12-16T21:53:31.129Z,35.20
2018-12-16T21:55:59.290Z,31.33
2018-12-16T21:58:27.434Z,35.37
2018-12-16T22:00:55.585Z,34.00
2018-12-16T22:03:23.725Z,46.10
2018-12-16T22:05:51.976Z,35.77
2018-12-16T22:08:20.129Z,51.93
2018-12-16T22:10:48.298Z,64.73
2018-12-16T22:13:16.462Z,70.40
2018-12-16T22:15:44.702Z,49.53
2018-12-16T22:18:12.966Z,49.27
2018-12-16T22:20:41.139Z,38.23
2018-12-16T22:23:09.307Z,44.73
2018-12-16T22:25:37.536Z,40.03
2018-12-16T22:28:05.687Z,41.03
2018-12-16T22:30:33.833Z,62.03
2018-12-16T22:33:01.984Z,63.40
2018-12-16T22:35:30.253Z,59.93
2018-12-16T22:37:58.412Z,44.10
2018-12-16T22:40:26.840Z,33.10
2018-12-16T22:42:54.975Z,37.27
2018-12-16T22:45:23.146Z,32.10
2018-12-16T22:47:51.296Z,30.53
2018-12-16T22:50:19.444Z,32.77
2018-12-16T22:52:47.620Z,33.07
2018-12-16T22:55:15.778Z,41.70
2018-12-16T22:57:47.082Z,43.83
2018-12-16T23:00:17.123Z,40.57
2018-12-16T23:02:45.448Z,45.03
2018-12-16T23:05:13.619Z,44.83
2018-12-16T23:07:41.781Z,39.47
2018-12-16T23:10:10.027Z,36.33
2018-12-16T23:12:38.213Z,33.33
2018-12-16T23:15:07.439Z,32.67
2018-12-16T23:17:35.667Z,32.77
2018-12-16T23:20:09.410Z,28.77
2018-12-16T23:22:37.553Z,33.13
2018-12-16T23:25:05.887Z,33.30
2018-12-16T23:27:34.119Z,40.23
2018-12-16T23:30:02.506Z,40.37
2018-12-16T23:32:30.665Z,38.73
2018-12-16T23:34:58.803Z,35.40
2018-12-16T23:37:26.956Z,39.87
2018-12-16T23:39:55.123Z,43.20
2018-12-16T23:42:23.326Z,33.30
2018-12-16T23:44:51.561Z,32.17
2018-12-16T23:47:19.712Z,38.97
2018-12-16T23:49:47.868Z,32.07
2018-12-16T23:52:16.108Z,37.90
2018-12-16T23:54:44.522Z,35.53
2018-12-16T23:57:12.760Z,32.93
2018-12-16T23:59:40.918Z,39.10
